createdAt,value
2018-05-07T00:00:03.101Z,14.8
2018-05-07T00:05:02.809Z,14.8
2018-05-07T00:10:02.453Z,14.8
2018-05-07T00:15:03.029Z,14.8
2018-05-07T00:20:02.548Z,14.8
2018-05-07T00:25:03.140Z,15.0
2018-05-07T00:30:02.739Z,14.3
2018-05-07T00:35:03.367Z,14.3
2018-05-07T00:40:03.192Z,14.3
2018-05-07T00:45:02.957Z,14.1
2018-05-07T00:50:02.495Z,14.1
2018-05-07T00:55:03.075Z,14.0
2018-05-07T01:00:02.550Z,13.6
2018-05-07T01:05:03.160Z,13.6
2018-05-07T01:10:02.739Z,13.5
2018-05-07T01:15:03.277Z,13.5
2018-05-07T01:20:02.778Z,13.3
2018-05-07T01:25:03.348Z,13.3
2018-05-07T01:30:02.840Z,13.1
2018-05-07T01:35:02.404Z,12.8
2018-05-07T01:40:02.995Z,12.8
2018-05-07T01:45:02.594Z,12.8
2018-05-07T01:50:03.097Z,12.6
2018-05-07T01:55:02.648Z,12.6
2018-05-07T02:00:03.180Z,12.5
2018-05-07T02:05:02.729Z,12.5
2018-05-07T02:10:03.295Z,12.5
2018-05-07T02:15:02.771Z,12.3
2018-05-07T02:20:03.312Z,12.3
2018-05-07T02:25:02.892Z,12.3
2018-05-07T02:30:02.615Z,12.3
2018-05-07T02:35:03.201Z,12.1
2018-05-07T02:40:02.772Z,12.1
2018-05-07T02:45:03.395Z,12.1
2018-05-07T02:50:02.909Z,12.0
2018-05-07T02:55:02.605Z,11.8
2018-05-07T03:00:03.263Z,11.8
2018-05-07T03:05:02.832Z,11.6
2018-05-07T03:10:02.539Z,11.6
2018-05-07T03:15:03.273Z,11.6
2018-05-07T03:20:02.846Z,11.6
2018-05-07T03:25:02.444Z,11.6
2018-05-07T03:30:02.967Z,11.6
2018-05-07T03:35:02.569Z,11.6
2018-05-07T03:40:03.203Z,11.6
2018-05-07T03:45:02.710Z,11.6
2018-05-07T03:50:03.413Z,11.3
2018-05-07T03:55:03.008Z,11.3
2018-05-07T04:00:02.744Z,11.3
2018-05-07T04:05:03.331Z,11.1
2018-05-07T04:10:02.891Z,11.1
2018-05-07T04:15:02.464Z,11.1
2018-05-07T04:20:03.041Z,11.1
2018-05-07T04:25:02.547Z,11.1
2018-05-07T04:30:02.411Z,11.1
2018-05-07T04:35:02.939Z,11.3
2018-05-07T04:40:02.478Z,11.3
2018-05-07T04:45:03.032Z,11.3
2018-05-07T04:50:02.607Z,11.6
2018-05-07T04:55:03.312Z,11.6
2018-05-07T05:00:03.102Z,11.6
2018-05-07T05:05:02.669Z,12.1
2018-05-07T05:10:03.217Z,12.1
2018-05-07T05:15:02.744Z,12.3
2018-05-07T05:20:03.278Z,12.5
2018-05-07T05:25:02.775Z,12.6
2018-05-07T05:30:02.417Z,12.6
2018-05-07T05:35:02.872Z,12.8
2018-05-07T05:40:02.430Z,13.1
2018-05-07T05:45:03.034Z,13.3
2018-05-07T05:50:02.747Z,13.5
2018-05-07T05:55:03.222Z,13.8
2018-05-07T06:00:02.734Z,14.1
2018-05-07T06:05:03.259Z,14.3
2018-05-07T06:10:02.970Z,14.3
2018-05-07T06:15:02.651Z,14.6
2018-05-07T06:20:03.138Z,14.8
2018-05-07T06:25:02.659Z,15.1
2018-05-07T06:30:03.285Z,15.1
2018-05-07T06:35:02.849Z,15.3
2018-05-07T06:40:02.699Z,15.3
2018-05-07T06:45:02.413Z,15.3
2018-05-07T06:50:03.190Z,16.2
2018-05-07T06:55:02.647Z,16.6
2018-05-07T07:00:03.243Z,16.7
2018-05-07T07:05:02.769Z,17.0
2018-05-07T07:10:03.344Z,17.2
2018-05-07T07:15:02.829Z,17.3
2018-05-07T07:20:02.406Z,17.7
2018-05-07T07:25:02.982Z,18.1
2018-05-07T07:30:02.833Z,18.2
2018-05-07T07:35:02.517Z,18.2
2018-05-07T07:40:03.181Z,19.0
2018-05-07T07:45:02.784Z,19.1
2018-05-07T07:50:03.325Z,19.3
2018-05-07T07:55:02.809Z,20.0
2018-05-07T08:00:03.375Z,20.2
2018-05-07T08:05:03.024Z,21.0
2018-05-07T08:10:02.628Z,21.5
2018-05-07T08:15:03.256Z,21.8
2018-05-07T08:20:02.828Z,22.2
2018-05-07T08:25:03.391Z,22.2
2018-05-07T08:30:02.936Z,23.2
2018-05-07T08:35:02.495Z,22.7
2018-05-07T08:40:03.112Z,22.7
2018-05-07T08:45:02.754Z,24.2
2018-05-07T08:50:02.468Z,23.8
2018-05-07T08:55:03.068Z,24.8
2018-05-07T09:00:02.582Z,25.6
2018-05-07T09:05:03.416Z,23.7
2018-05-07T09:10:03.064Z,24.2
2018-05-07T09:15:02.620Z,24.2
2018-05-07T09:20:03.272Z,25.1
2018-05-07T09:25:02.869Z,25.5
2018-05-07T09:30:03.364Z,25.6
2018-05-07T09:35:03.002Z,25.7
2018-05-07T09:40:02.648Z,26.0
2018-05-07T09:45:03.135Z,25.5
2018-05-07T09:50:02.691Z,25.7
2018-05-07T09:55:03.203Z,25.8
2018-05-07T10:00:02.782Z,26.2
2018-05-07T10:05:02.372Z,27.2
2018-05-07T10:10:02.957Z,25.5
2018-05-07T10:15:02.665Z,27.7
2018-05-07T10:20:03.202Z,27.2
2018-05-07T10:25:02.813Z,28.3
2018-05-07T10:30:03.332Z,26.8
2018-05-07T10:35:03.021Z,26.8
2018-05-07T10:40:02.584Z,27.2
2018-05-07T10:45:03.143Z,27.7
2018-05-07T10:50:02.654Z,29.7
2018-05-07T10:55:03.168Z,27.7
2018-05-07T11:00:02.931Z,26.1
2018-05-07T11:05:02.534Z,26.8
2018-05-07T11:10:03.141Z,27.2
2018-05-07T11:15:02.664Z,29.2
2018-05-07T11:20:03.178Z,28.2
2018-05-07T11:25:02.734Z,28.2
2018-05-07T11:30:03.344Z,27.2
2018-05-07T11:35:02.890Z,28.3
2018-05-07T11:40:02.482Z,27.3
2018-05-07T11:45:03.021Z,27.1
2018-05-07T11:50:02.600Z,28.5
2018-05-07T11:55:03.081Z,27.2
2018-05-07T12:00:02.557Z,26.7
2018-05-07T12:05:03.222Z,28.8
2018-05-07T12:10:02.800Z,29.1
2018-05-07T12:15:02.399Z,30.2
2018-05-07T12:20:02.997Z,29.1
2018-05-07T12:25:02.779Z,28.2
2018-05-07T12:30:03.343Z,28.0
2018-05-07T12:35:02.867Z,30.1
2018-05-07T12:40:02.435Z,30.2
2018-05-07T12:45:03.044Z,28.8
2018-05-07T12:50:02.496Z,29.5
2018-05-07T12:55:03.128Z,30.2
2018-05-07T13:00:02.722Z,29.0
2018-05-07T13:05:03.305Z,30.2
2018-05-07T13:10:02.938Z,28.1
2018-05-07T13:15:02.655Z,29.5
2018-05-07T13:20:03.281Z,30.2
2018-05-07T13:25:02.802Z,29.1
2018-05-07T13:30:03.329Z,29.1
2018-05-07T13:35:02.781Z,30.0
2018-05-07T13:40:03.369Z,30.6
2018-05-07T13:45:02.876Z,31.2
2018-05-07T13:50:03.359Z,31.7
2018-05-07T13:55:02.859Z,31.2
2018-05-07T14:00:03.350Z,31.7
2018-05-07T14:05:02.811Z,31.2
2018-05-07T14:10:02.398Z,30.3
2018-05-07T14:15:02.870Z,29.2
2018-05-07T14:20:02.656Z,31.7
2018-05-07T14:25:03.381Z,30.3
2018-05-07T14:30:02.981Z,31.7
2018-05-07T14:35:02.722Z,30.7
2018-05-07T14:40:03.405Z,32.4
2018-05-07T14:45:02.980Z,30.7
2018-05-07T14:50:02.491Z,30.7
2018-05-07T14:55:03.011Z,29.5
2018-05-07T15:00:02.769Z,29.0
2018-05-07T15:05:02.425Z,31.7
2018-05-07T15:10:03.109Z,30.2
2018-05-07T15:15:02.639Z,29.0
2018-05-07T15:20:03.247Z,29.1
2018-05-07T15:25:02.735Z,29.1
2018-05-07T15:30:03.318Z,29.5
2018-05-07T15:35:02.893Z,29.7
2018-05-07T15:40:02.510Z,29.7
2018-05-07T15:45:03.055Z,31.7
2018-05-07T15:50:02.645Z,29.7
2018-05-07T15:55:03.201Z,29.1
2018-05-07T16:00:02.843Z,30.1
2018-05-07T16:05:02.374Z,28.7
2018-05-07T16:10:02.962Z,30.1
2018-05-07T16:15:02.704Z,31.3
2018-05-07T16:20:03.124Z,29.2
2018-05-07T16:25:02.829Z,29.7
2018-05-07T16:30:02.394Z,28.8
2018-05-07T16:35:03.009Z,30.0
2018-05-07T16:40:02.596Z,30.1
2018-05-07T16:45:03.334Z,28.7
2018-05-07T16:50:02.856Z,28.7
2018-05-07T16:55:02.451Z,29.1
2018-05-07T17:00:03.049Z,28.8
2018-05-07T17:05:02.742Z,28.1
2018-05-07T17:10:03.369Z,29.2
2018-05-07T17:15:03.000Z,27.5
2018-05-07T17:20:02.712Z,27.3
2018-05-07T17:25:03.467Z,27.3
2018-05-07T17:30:03.001Z,27.2
2018-05-07T17:35:02.900Z,28.1
2018-05-07T17:40:02.523Z,27.1
2018-05-07T17:45:03.105Z,26.7
2018-05-07T17:50:02.652Z,26.7
2018-05-07T17:55:03.157Z,26.7
2018-05-07T18:00:02.761Z,26.2
2018-05-07T18:05:02.813Z,26.2
2018-05-07T18:10:02.384Z,26.6
2018-05-07T18:15:02.988Z,25.3
2018-05-07T18:20:02.507Z,24.2
2018-05-07T18:25:03.124Z,23.7
2018-05-07T18:30:02.671Z,23.6
2018-05-07T18:35:03.237Z,23.2
2018-05-07T18:40:02.852Z,23.0
2018-05-07T18:45:03.351Z,22.7
2018-05-07T18:50:02.937Z,22.5
2018-05-07T18:55:02.520Z,22.2
2018-05-07T19:00:03.096Z,22.0
2018-05-07T19:05:02.630Z,21.8
2018-05-07T19:10:03.228Z,21.5
2018-05-07T19:15:02.811Z,21.2
2018-05-07T19:20:02.395Z,21.2
2018-05-07T19:25:02.846Z,20.8
2018-05-07T19:30:03.358Z,20.8
2018-05-07T19:35:02.949Z,20.7
2018-05-07T19:40:02.603Z,20.6
2018-05-07T19:45:02.504Z,20.3
2018-05-07T19:50:03.205Z,20.2
2018-05-07T19:55:02.755Z,20.1
2018-05-07T20:00:03.438Z,20.1
2018-05-07T20:05:03.053Z,20.1
2018-05-07T20:10:02.643Z,19.7
2018-05-07T20:15:03.269Z,19.7
2018-05-07T20:20:02.945Z,19.7
2018-05-07T20:25:03.113Z,19.3
2018-05-07T20:30:02.625Z,19.2
2018-05-07T20:35:03.211Z,19.1
2018-05-07T20:40:02.846Z,19.0
2018-05-07T20:45:02.372Z,19.0
2018-05-07T20:50:02.910Z,18.8
2018-05-07T20:55:02.511Z,18.7
2018-05-07T21:00:03.092Z,18.7
2018-05-07T21:05:02.671Z,18.5
2018-05-07T21:10:03.297Z,18.5
2018-05-07T21:15:02.847Z,18.2
2018-05-07T21:20:02.424Z,18.2
2018-05-07T21:25:03.017Z,18.2
2018-05-07T21:30:02.597Z,18.1
2018-05-07T21:35:03.494Z,17.8
2018-05-07T21:40:03.046Z,17.8
2018-05-07T21:45:02.597Z,17.7
2018-05-07T21:50:03.003Z,17.7
2018-05-07T21:55:02.610Z,17.3
2018-05-07T22:00:03.157Z,17.7
2018-05-07T22:05:02.719Z,17.7
2018-05-07T22:10:03.250Z,17.7
2018-05-07T22:15:02.790Z,17.7
2018-05-07T22:20:03.462Z,17.7
2018-05-07T22:25:02.958Z,17.7
2018-05-07T22:30:02.553Z,17.7
2018-05-07T22:35:03.091Z,17.7
2018-05-07T22:40:02.617Z,17.5
2018-05-07T22:45:03.174Z,17.2
2018-05-07T22:50:02.723Z,17.0
2018-05-07T22:55:03.331Z,17.0
2018-05-07T23:00:02.881Z,16.7
2018-05-07T23:05:02.831Z,16.7
2018-05-07T23:10:02.431Z,16.7
2018-05-07T23:15:03.146Z,16.3
2018-05-07T23:20:02.693Z,16.2
2018-05-07T23:25:03.266Z,16.2
2018-05-07T23:30:02.831Z,16.0
2018-05-07T23:35:02.427Z,15.8
2018-05-07T23:40:03.088Z,15.8
2018-05-07T23:45:02.665Z,15.8
2018-05-07T23:50:03.183Z,15.8
2018-05-07T23:55:02.747Z,15.6
